Terminal Aerodrome Forecast
Issued by NWS Jackson, MS

Home | Current Version | Previous Version | Text Only | Print | Product List | Glossary On
Versions: 1 2 3 4 5 6 7 8 9 10 11 12 13 14 15 16 17 18
000
FTUS44 KMEG 041730
TAFTUP
TAF
KTUP 041730Z 0418/0518 25009KT P6SM -SHRA VCTS BKN030CB OVC100
     FM050200 VRB02KT P6SM VCSH BKN030 OVC100
     FM050600 VRB02KT 5SM BR BKN012 OVC020
     FM051600 22006KT P6SM BKN020 OVC035=

USA.gov is the U.S. government's official web portal to all federal, state and local government web resources and services.